Time;durP1;ratioP1;P1;durP2;ratioP2;P2;SDS_P1;SDS_P2;PMS_P1;PMS_P2;Temp;Humidity;BMP_temperature;BMP_pressure;BME280_temperature;BME280_humidity;BME280_pressure;Samples;Min_cycle;Max_cycle;Signal;HPM_P1;HPM_P2
2023/07/22 00:00:44;;;;;;;5.57;3.20;;;14.70;99.90;;;;;;5097196;28;20515;-76
2023/07/22 00:03:09;;;;;;;8.83;3.70;;;14.70;99.90;;;;;;5096005;28;20048;-76
2023/07/22 00:05:35;;;;;;;6.37;3.97;;;14.70;99.90;;;;;;5095645;28;20130;-76
2023/07/22 00:08:01;;;;;;;7.50;3.90;;;14.70;99.90;;;;;;5096672;28;20048;-76
2023/07/22 00:10:27;;;;;;;8.73;3.70;;;14.60;99.90;;;;;;5096714;28;20127;-76
2023/07/22 00:12:53;;;;;;;8.10;3.57;;;14.60;99.90;;;;;;5096912;28;20744;-76
2023/07/22 00:15:20;;;;;;;8.97;4.13;;;14.60;99.90;;;;;;5096715;28;20061;-77
2023/07/22 00:17:46;;;;;;;8.10;3.73;;;14.50;99.90;;;;;;5096724;28;20047;-76
2023/07/22 00:20:12;;;;;;;8.87;4.00;;;14.50;99.90;;;;;;5096827;28;20282;-76
2023/07/22 00:22:41;;;;;;;7.40;4.20;;;14.50;99.90;;;;;;5096859;28;20047;-76
2023/07/22 00:25:11;;;;;;;7.60;3.90;;;14.40;99.90;;;;;;5096598;28;20048;-76
2023/07/22 00:27:38;;;;;;;9.30;4.00;;;14.50;99.90;;;;;;5096354;28;20652;-76
2023/07/22 00:30:06;;;;;;;6.27;3.20;;;14.50;99.90;;;;;;5096583;28;20301;-76
2023/07/22 00:32:31;;;;;;;6.93;4.00;;;14.50;99.90;;;;;;5096213;28;20278;-76
2023/07/22 00:34:57;;;;;;;7.67;3.57;;;14.50;99.90;;;;;;5096522;28;20274;-77
2023/07/22 00:37:23;;;;;;;7.00;4.00;;;14.40;99.90;;;;;;5096062;28;20123;-76
2023/07/22 00:39:49;;;;;;;8.47;3.63;;;14.40;99.90;;;;;;5096018;28;20120;-76
2023/07/22 00:42:14;;;;;;;7.53;3.63;;;14.30;99.90;;;;;;5096246;28;20048;-76
2023/07/22 00:44:40;;;;;;;9.20;3.33;;;14.30;99.90;;;;;;5096109;28;20491;-76
2023/07/22 00:47:06;;;;;;;9.57;3.80;;;14.30;99.90;;;;;;5095704;28;20056;-76
2023/07/22 00:49:32;;;;;;;6.63;3.57;;;14.30;99.90;;;;;;5095845;28;20094;-76
2023/07/22 00:52:02;;;;;;;6.40;3.03;;;14.20;99.90;;;;;;5095161;28;20157;-76
2023/07/22 00:54:29;;;;;;;6.97;3.27;;;14.20;99.90;;;;;;5095824;28;20270;-77
2023/07/22 00:56:57;;;;;;;5.53;2.90;;;14.20;99.90;;;;;;5078261;28;20304;-76
2023/07/22 00:59:23;;;;;;;8.90;3.37;;;14.20;99.90;;;;;;5095655;28;20680;-76
2023/07/22 01:01:49;;;;;;;8.23;3.60;;;14.10;99.90;;;;;;5096123;28;20633;-77
2023/07/22 01:04:19;;;;;;;6.00;3.20;;;14.10;99.90;;;;;;5095890;28;20282;-77
2023/07/22 01:06:45;;;;;;;6.43;3.37;;;14.10;99.90;;;;;;5095848;28;20047;-77
2023/07/22 01:09:11;;;;;;;7.00;2.93;;;14.10;99.90;;;;;;5094643;28;20282;-77
2023/07/22 01:11:36;;;;;;;7.23;3.60;;;14.00;99.90;;;;;;5094508;28;20393;-77
2023/07/22 01:14:03;;;;;;;9.10;3.23;;;14.10;99.90;;;;;;5095826;28;20048;-77
2023/07/22 01:16:29;;;;;;;6.77;3.20;;;14.00;99.90;;;;;;5095421;28;20392;-76
2023/07/22 01:18:55;;;;;;;8.53;3.47;;;14.00;99.90;;;;;;5095754;28;20306;-78
2023/07/22 01:21:23;;;;;;;6.77;2.90;;;14.00;99.90;;;;;;5095290;28;20678;-77
2023/07/22 01:23:50;;;;;;;8.10;3.20;;;13.90;99.90;;;;;;5095858;28;20048;-76
2023/07/22 01:26:16;;;;;;;6.90;3.30;;;13.90;99.90;;;;;;5094259;28;20282;-76
2023/07/22 01:28:41;;;;;;;6.77;2.90;;;13.90;99.90;;;;;;5095130;28;20323;-76
2023/07/22 01:31:07;;;;;;;6.30;2.90;;;13.90;99.90;;;;;;5095436;28;20055;-76
2023/07/22 01:33:33;;;;;;;6.53;3.27;;;13.90;99.90;;;;;;5095092;28;20048;-76
2023/07/22 01:35:59;;;;;;;5.93;2.90;;;13.90;99.90;;;;;;5094021;28;20043;-76
2023/07/22 01:38:25;;;;;;;6.90;2.83;;;13.80;99.90;;;;;;5095075;28;20048;-76
2023/07/22 01:40:51;;;;;;;7.23;3.30;;;13.80;99.90;;;;;;5095235;28;20746;-76
2023/07/22 01:43:17;;;;;;;7.90;2.90;;;13.80;99.90;;;;;;5095173;28;20044;-77
2023/07/22 01:45:42;;;;;;;5.40;2.80;;;13.70;99.90;;;;;;5094897;28;20411;-76
2023/07/22 01:48:08;;;;;;;5.93;2.90;;;13.70;99.90;;;;;;5095105;28;20048;-76
2023/07/22 01:50:34;;;;;;;6.33;2.90;;;13.70;99.90;;;;;;5094789;28;20066;-76
2023/07/22 01:53:00;;;;;;;6.43;2.73;;;13.70;99.90;;;;;;5093861;28;20444;-78
2023/07/22 01:55:25;;;;;;;6.43;2.80;;;13.70;99.90;;;;;;5094662;28;20047;-76
2023/07/22 01:57:51;;;;;;;6.63;2.40;;;13.70;99.90;;;;;;5094779;28;20074;-76
2023/07/22 02:00:17;;;;;;;8.73;3.17;;;13.70;99.90;;;;;;5095081;28;20044;-77
2023/07/22 02:02:43;;;;;;;6.77;2.70;;;13.70;99.90;;;;;;5094608;28;20093;-77
2023/07/22 02:05:12;;;;;;;5.63;2.60;;;13.60;99.90;;;;;;5094746;28;20480;-77
2023/07/22 02:07:39;;;;;;;7.03;2.97;;;13.70;99.90;;;;;;5094391;28;20598;-76
2023/07/22 02:10:05;;;;;;;5.87;2.97;;;13.60;99.90;;;;;;5094610;28;20773;-76
2023/07/22 02:12:31;;;;;;;8.73;3.00;;;13.60;99.90;;;;;;5094310;28;20289;-77
2023/07/22 02:14:56;;;;;;;6.30;3.40;;;13.60;99.90;;;;;;5094505;28;20278;-76
2023/07/22 02:17:23;;;;;;;5.60;2.90;;;13.60;99.90;;;;;;5094430;28;20494;-76
2023/07/22 02:19:49;;;;;;;5.50;2.80;;;13.60;99.90;;;;;;5094004;28;20048;-76
2023/07/22 02:22:15;;;;;;;5.60;3.27;;;13.60;99.90;;;;;;5094271;28;20278;-76
2023/07/22 02:24:41;;;;;;;6.37;3.03;;;13.60;99.90;;;;;;5093919;28;20288;-76
2023/07/22 02:27:08;;;;;;;7.70;3.57;;;13.60;99.90;;;;;;5094291;28;20118;-76
2023/07/22 02:29:34;;;;;;;7.70;3.23;;;13.60;99.90;;;;;;5094084;28;20059;-76
2023/07/22 02:32:01;;;;;;;6.27;3.30;;;13.60;99.90;;;;;;5094405;28;20281;-76
2023/07/22 02:34:26;;;;;;;8.03;3.77;;;13.60;99.90;;;;;;5094149;28;20055;-76
2023/07/22 02:36:52;;;;;;;7.30;3.67;;;13.60;99.90;;;;;;5093835;28;20297;-76
2023/07/22 02:39:18;;;;;;;9.13;4.13;;;13.60;99.90;;;;;;5094095;28;20079;-76
2023/07/22 02:41:43;;;;;;;7.10;3.47;;;13.60;99.90;;;;;;5092660;28;20048;-76
2023/07/22 02:44:09;;;;;;;6.60;3.80;;;13.70;99.90;;;;;;5093249;28;20412;-76
2023/07/22 02:46:35;;;;;;;9.13;3.60;;;13.70;99.90;;;;;;5093245;28;20056;-76
2023/07/22 02:49:00;;;;;;;6.37;3.60;;;13.70;99.90;;;;;;5093861;28;20052;-77
2023/07/22 02:51:26;;;;;;;9.20;4.17;;;13.70;99.90;;;;;;5093822;28;20044;-76
2023/07/22 02:53:52;;;;;;;9.97;3.80;;;13.70;99.90;;;;;;5093584;28;20568;-76
2023/07/22 02:56:18;;;;;;;8.90;3.67;;;13.70;99.90;;;;;;5093732;28;20388;-76
2023/07/22 02:58:43;;;;;;;7.43;4.40;;;13.80;99.90;;;;;;5092248;28;20084;-76
2023/07/22 03:01:10;;;;;;;7.43;4.20;;;13.70;99.90;;;;;;5093565;28;20141;-76
2023/07/22 03:03:36;;;;;;;7.03;3.50;;;13.70;99.90;;;;;;5092060;28;20509;-76
2023/07/22 03:06:03;;;;;;;6.60;3.73;;;13.70;99.90;;;;;;5075671;28;20376;-76
2023/07/22 03:08:29;;;;;;;11.30;4.37;;;13.60;99.90;;;;;;5093463;28;20290;-76
2023/07/22 03:10:55;;;;;;;8.50;3.77;;;13.60;99.90;;;;;;5093141;28;20281;-77
2023/07/22 03:13:21;;;;;;;7.73;4.07;;;13.60;99.90;;;;;;5092618;28;20052;-76
2023/07/22 03:15:46;;;;;;;7.30;4.13;;;13.60;99.90;;;;;;5093272;28;20048;-76
2023/07/22 03:18:12;;;;;;;7.30;3.47;;;13.60;99.90;;;;;;5093436;28;20097;-77
2023/07/22 03:20:39;;;;;;;8.40;3.70;;;13.70;99.90;;;;;;5093186;28;20047;-76
2023/07/22 03:23:06;;;;;;;8.73;3.60;;;13.70;99.90;;;;;;5093051;28;20545;-77
2023/07/22 03:25:32;;;;;;;8.40;4.03;;;13.70;99.90;;;;;;5093270;28;20784;-76
2023/07/22 03:28:02;;;;;;;8.30;4.10;;;13.70;99.90;;;;;;5092992;28;20270;-76
2023/07/22 03:30:27;;;;;;;7.67;4.00;;;13.70;99.90;;;;;;5093254;28;20377;-76
2023/07/22 03:32:54;;;;;;;9.03;3.97;;;13.70;99.90;;;;;;5092323;28;20293;-76
2023/07/22 03:35:19;;;;;;;7.00;4.13;;;13.70;99.90;;;;;;5093168;28;20094;-76
2023/07/22 03:37:45;;;;;;;12.33;4.83;;;13.70;99.90;;;;;;5092851;28;20325;-76
2023/07/22 03:40:17;;;;;;;6.43;3.90;;;13.80;99.90;;;;;;5093173;28;20091;-76
2023/07/22 03:42:43;;;;;;;7.23;4.40;;;13.80;99.90;;;;;;5092675;28;20507;-76
2023/07/22 03:45:09;;;;;;;8.37;4.23;;;13.80;99.90;;;;;;5091810;28;20328;-76
2023/07/22 03:47:35;;;;;;;8.23;4.53;;;13.80;99.90;;;;;;5092778;28;20385;-76
2023/07/22 03:50:02;;;;;;;9.07;4.10;;;13.80;99.90;;;;;;5092779;28;20278;-76
2023/07/22 03:52:27;;;;;;;9.03;5.50;;;13.80;99.90;;;;;;5092962;28;20365;-77
2023/07/22 03:54:53;;;;;;;9.33;5.07;;;13.80;99.90;;;;;;5091660;28;20385;-77
2023/07/22 03:57:19;;;;;;;8.27;4.90;;;13.80;99.90;;;;;;5092980;28;20047;-76
2023/07/22 03:59:45;;;;;;;9.17;5.03;;;13.90;99.90;;;;;;5092848;28;20461;-77
2023/07/22 04:02:10;;;;;;;8.50;5.43;;;13.90;99.90;;;;;;5091866;28;20062;-77
2023/07/22 04:04:36;;;;;;;9.33;5.87;;;13.90;99.90;;;;;;5092862;28;20108;-76
2023/07/22 04:07:02;;;;;;;10.20;5.97;;;13.90;99.90;;;;;;5091432;28;20044;-77
2023/07/22 04:09:27;;;;;;;9.80;5.80;;;13.90;99.90;;;;;;5092971;28;20051;-77
2023/07/22 04:11:53;;;;;;;9.87;6.03;;;13.90;99.90;;;;;;5091126;28;20472;-77
2023/07/22 04:14:19;;;;;;;11.37;6.60;;;13.90;99.90;;;;;;5092487;28;20054;-77
2023/07/22 04:16:44;;;;;;;10.30;6.30;;;13.90;99.90;;;;;;5092563;28;20040;-77
2023/07/22 04:19:10;;;;;;;10.83;6.80;;;13.90;99.90;;;;;;5092764;28;20426;-77
2023/07/22 04:21:36;;;;;;;11.90;6.53;;;13.90;99.90;;;;;;5092791;28;20058;-77
2023/07/22 04:24:02;;;;;;;11.87;6.73;;;14.00;99.90;;;;;;5092458;28;20301;-77
2023/07/22 04:26:27;;;;;;;9.73;6.23;;;14.00;99.90;;;;;;5092942;28;20047;-76
2023/07/22 04:28:53;;;;;;;10.33;6.27;;;14.10;99.90;;;;;;5091236;28;20701;-76
2023/07/22 04:31:19;;;;;;;9.90;6.40;;;14.10;99.90;;;;;;5091452;28;20118;-77
2023/07/22 04:33:45;;;;;;;10.50;6.47;;;14.20;99.90;;;;;;5092435;28;20096;-76
2023/07/22 04:36:10;;;;;;;12.53;6.60;;;14.20;99.90;;;;;;5092540;28;20097;-76
2023/07/22 04:38:36;;;;;;;10.47;6.80;;;14.20;99.90;;;;;;5091656;28;20090;-76
2023/07/22 04:41:03;;;;;;;12.07;7.17;;;14.20;99.90;;;;;;5092343;28;20071;-77
2023/07/22 04:43:29;;;;;;;11.83;7.50;;;14.30;99.90;;;;;;5094482;28;20040;-77
2023/07/22 04:45:55;;;;;;;10.70;7.10;;;14.30;99.90;;;;;;5094395;28;20301;-76
2023/07/22 04:48:24;;;;;;;11.37;6.87;;;14.40;99.90;;;;;;5095230;28;20052;-77
2023/07/22 04:50:50;;;;;;;12.17;7.17;;;14.40;99.90;;;;;;5095885;28;20282;-76
2023/07/22 04:53:17;;;;;;;14.30;7.40;;;14.50;99.90;;;;;;5095866;28;20765;-77
2023/07/22 04:55:43;;;;;;;14.20;7.80;;;14.50;99.90;;;;;;5095197;28;20286;-77
2023/07/22 04:58:10;;;;;;;11.20;7.77;;;14.50;99.90;;;;;;5094618;28;20302;-77
2023/07/22 05:00:39;;;;;;;10.60;7.10;;;14.60;99.90;;;;;;5095833;28;20290;-77
2023/07/22 05:03:05;;;;;;;12.20;7.30;;;14.70;99.90;;;;;;5094636;28;20353;-77
2023/07/22 05:05:31;;;;;;;13.53;7.20;;;14.70;99.90;;;;;;5096054;28;20412;-77
2023/07/22 05:07:57;;;;;;;11.27;7.30;;;14.70;99.90;;;;;;5095721;28;20137;-77
2023/07/22 05:10:23;;;;;;;10.40;7.47;;;14.70;99.90;;;;;;5096134;28;20784;-78
2023/07/22 05:12:48;;;;;;;11.23;7.40;;;14.80;99.90;;;;;;5094535;28;20048;-77
2023/07/22 05:15:15;;;;;;;12.03;7.20;;;14.90;99.90;;;;;;5095835;28;20044;-77
2023/07/22 05:17:41;;;;;;;9.47;6.70;;;15.00;99.90;;;;;;5095729;28;20044;-76
2023/07/22 05:20:09;;;;;;;12.73;7.00;;;15.00;99.90;;;;;;5077630;28;20359;-77
2023/07/22 05:22:38;;;;;;;12.77;8.00;;;15.10;99.90;;;;;;5095589;28;20044;-78
2023/07/22 05:25:06;;;;;;;13.47;8.03;;;15.10;99.90;;;;;;5094925;28;20286;-77
2023/07/22 05:27:31;;;;;;;11.00;7.20;;;15.20;99.90;;;;;;5077630;28;20290;-77
2023/07/22 05:29:57;;;;;;;13.07;8.23;;;15.30;99.90;;;;;;5095183;28;20339;-77
2023/07/22 05:32:23;;;;;;;14.20;7.87;;;15.40;99.90;;;;;;5095492;28;20040;-77
2023/07/22 05:34:49;;;;;;;12.97;8.23;;;15.40;99.90;;;;;;5095401;28;20048;-77
2023/07/22 05:37:14;;;;;;;13.47;8.17;;;15.50;99.90;;;;;;5093975;28;20132;-77
2023/07/22 05:39:40;;;;;;;13.47;9.20;;;15.60;99.90;;;;;;5094090;28;20051;-77
2023/07/22 05:42:06;;;;;;;15.87;8.53;;;15.70;99.90;;;;;;5095032;28;20050;-77
2023/07/22 05:44:32;;;;;;;12.73;7.77;;;15.80;99.90;;;;;;5094095;28;20134;-77
2023/07/22 05:46:58;;;;;;;12.93;9.03;;;15.80;99.90;;;;;;5093043;28;20139;-77
2023/07/22 05:49:24;;;;;;;19.40;8.87;;;15.90;99.90;;;;;;5095209;28;20548;-77
2023/07/22 05:51:49;;;;;;;15.73;9.00;;;15.90;99.90;;;;;;5095116;28;20511;-77
2023/07/22 05:54:15;;;;;;;14.37;9.87;;;16.00;99.90;;;;;;5094130;28;20048;-77
2023/07/22 05:56:41;;;;;;;14.30;9.80;;;16.10;99.90;;;;;;5094956;28;20048;-77
2023/07/22 05:59:07;;;;;;;12.97;8.33;;;16.10;99.90;;;;;;5094655;28;20136;-77
2023/07/22 06:01:33;;;;;;;15.23;10.60;;;16.30;99.90;;;;;;5094883;28;20093;-77
2023/07/22 06:03:58;;;;;;;15.40;9.63;;;16.50;99.90;;;;;;5094620;28;20083;-77
2023/07/22 06:06:24;;;;;;;13.97;9.33;;;16.70;99.90;;;;;;5094717;28;20040;-77
2023/07/22 06:08:50;;;;;;;13.17;9.50;;;16.80;99.90;;;;;;5094660;28;20395;-77
2023/07/22 06:11:16;;;;;;;14.10;10.03;;;16.90;99.90;;;;;;5094438;28;20054;-77
2023/07/22 06:13:43;;;;;;;16.77;10.83;;;17.00;99.90;;;;;;5077057;28;20048;-77
2023/07/22 06:16:08;;;;;;;13.23;9.80;;;17.20;99.90;;;;;;5094348;28;20408;-76
2023/07/22 06:18:34;;;;;;;14.77;10.00;;;17.50;99.90;;;;;;5093619;28;20468;-77
2023/07/22 06:21:00;;;;;;;14.80;9.37;;;17.70;99.90;;;;;;5094406;28;20127;-76
2023/07/22 06:23:25;;;;;;;16.50;10.13;;;17.80;99.90;;;;;;5094536;28;20051;-77
2023/07/22 06:25:52;;;;;;;15.33;9.53;;;17.80;99.90;;;;;;5094134;28;20083;-77
2023/07/22 06:28:17;;;;;;;13.07;9.43;;;17.80;99.90;;;;;;5094157;28;20102;-78
2023/07/22 06:30:43;;;;;;;15.23;9.90;;;17.90;99.90;;;;;;5093428;28;20044;-77
2023/07/22 06:33:09;;;;;;;14.37;9.23;;;18.00;99.90;;;;;;5094058;28;20123;-77
2023/07/22 06:35:35;;;;;;;13.80;10.27;;;18.00;99.90;;;;;;5094316;28;20036;-76
2023/07/22 06:38:01;;;;;;;14.43;10.17;;;18.10;99.90;;;;;;5093991;28;20047;-76
2023/07/22 06:40:26;;;;;;;16.23;10.63;;;18.00;99.90;;;;;;5094258;28;20543;-76
2023/07/22 06:42:52;;;;;;;14.93;10.63;;;17.90;99.90;;;;;;5094198;28;20048;-77
2023/07/22 06:45:19;;;;;;;17.47;11.27;;;17.80;99.90;;;;;;5093660;28;20059;-77
2023/07/22 06:47:45;;;;;;;15.93;11.07;;;17.80;99.90;;;;;;5093163;28;20459;-77
2023/07/22 06:50:10;;;;;;;15.23;11.27;;;17.90;99.90;;;;;;5075943;28;20138;-77
2023/07/22 06:52:36;;;;;;;17.33;10.90;;;18.00;99.90;;;;;;5076163;28;20048;-77
2023/07/22 06:55:02;;;;;;;13.87;10.80;;;18.10;99.90;;;;;;5093706;28;20044;-77
2023/07/22 06:57:29;;;;;;;15.17;11.03;;;18.10;99.90;;;;;;5094015;28;20032;-77
2023/07/22 06:59:55;;;;;;;16.80;11.67;;;18.10;99.90;;;;;;5093835;28;20040;-77
2023/07/22 07:02:22;;;;;;;13.03;10.50;;;18.10;99.90;;;;;;5093192;28;20484;-77
2023/07/22 07:04:47;;;;;;;16.30;10.53;;;18.20;99.90;;;;;;5092825;28;20124;-78
2023/07/22 07:07:14;;;;;;;16.63;11.17;;;18.30;99.90;;;;;;5092605;28;20471;-78
2023/07/22 07:09:40;;;;;;;15.37;10.17;;;18.40;99.90;;;;;;5093687;28;20051;-78
2023/07/22 07:12:06;;;;;;;14.00;10.80;;;18.40;99.90;;;;;;5092423;28;20127;-78
2023/07/22 07:14:36;;;;;;;16.73;10.60;;;18.40;99.90;;;;;;5092497;28;20170;-83
2023/07/22 07:17:02;;;;;;;13.57;10.07;;;18.70;99.90;;;;;;5092006;28;20119;-77
2023/07/22 07:19:28;;;;;;;14.37;10.20;;;19.00;99.90;;;;;;5092833;28;20068;-77
2023/07/22 07:21:54;;;;;;;11.60;9.87;;;19.00;99.90;;;;;;5092004;28;20492;-78
2023/07/22 07:24:19;;;;;;;12.00;9.47;;;19.10;99.90;;;;;;5092974;28;20048;-77
2023/07/22 07:26:45;;;;;;;12.37;9.33;;;19.00;99.90;;;;;;5093490;28;20128;-78
2023/07/22 07:29:11;;;;;;;12.37;9.73;;;19.30;99.90;;;;;;5091625;28;20557;-80
2023/07/22 07:31:38;;;;;;;14.60;8.17;;;19.80;99.90;;;;;;5092474;28;20074;-80
2023/07/22 07:34:03;;;;;;;11.87;8.57;;;20.50;99.90;;;;;;5093348;28;20044;-80
2023/07/22 07:36:29;;;;;;;11.50;8.50;;;21.10;99.90;;;;;;5092934;28;20047;-80
2023/07/22 07:38:55;;;;;;;11.97;8.20;;;21.50;99.90;;;;;;5093241;28;20059;-79
2023/07/22 07:41:21;;;;;;;10.23;8.27;;;21.90;99.90;;;;;;5092055;28;20092;-79
2023/07/22 07:43:47;;;;;;;10.97;7.73;;;22.00;99.90;;;;;;5092090;28;20472;-78
2023/07/22 07:46:24;;;;;;;9.97;7.63;;;22.20;99.90;;;;;;5092992;28;20055;-78
2023/07/22 07:48:55;;;;;;;10.67;8.00;;;22.40;99.90;;;;;;5093559;28;20193;-79
2023/07/22 07:51:22;;;;;;;11.10;8.27;;;22.90;99.90;;;;;;5092011;28;20138;-79
2023/07/22 07:53:48;;;;;;;9.63;7.60;;;23.50;99.90;;;;;;5093383;28;20532;-80
2023/07/22 07:56:15;;;;;;;9.83;7.50;;;24.10;99.90;;;;;;5092995;28;20040;-79
2023/07/22 07:58:42;;;;;;;9.37;7.30;;;24.40;99.90;;;;;;5092098;28;20051;-79
2023/07/22 08:01:08;;;;;;;11.70;7.50;;;24.30;99.90;;;;;;5093451;28;20396;-78
2023/07/22 08:03:35;;;;;;;9.17;6.73;;;23.90;99.90;;;;;;5092904;28;20047;-76
2023/07/22 08:06:01;;;;;;;10.00;7.87;;;23.30;99.90;;;;;;5093131;28;20131;-77
2023/07/22 08:08:27;;;;;;;11.20;8.97;;;22.80;99.90;;;;;;5092958;28;20066;-79
2023/07/22 08:11:04;;;;;;;13.73;9.93;;;22.20;99.90;;;;;;5075445;28;20484;-80
2023/07/22 08:13:31;;;;;;;17.17;11.23;;;21.70;99.90;;;;;;5093057;28;20495;-80
2023/07/22 08:16:03;;;;;;;17.83;13.50;;;21.40;99.90;;;;;;5092735;28;20377;-80
2023/07/22 08:18:29;;;;;;;19.70;13.90;;;21.00;99.90;;;;;;5094976;28;20109;-78
2023/07/22 08:20:55;;;;;;;23.43;15.73;;;20.70;99.90;;;;;;5096174;28;20040;-79
2023/07/22 08:23:21;;;;;;;20.90;15.60;;;20.60;99.90;;;;;;5096550;28;20499;-78
2023/07/22 08:25:47;;;;;;;22.70;17.00;;;20.50;99.90;;;;;;5096000;28;20054;-79
2023/07/22 08:28:13;;;;;;;22.10;15.93;;;20.50;99.90;;;;;;5096739;28;20046;-78
2023/07/22 08:30:40;;;;;;;22.97;16.97;;;20.40;99.90;;;;;;5096856;28;20491;-79
2023/07/22 08:33:11;;;;;;;22.57;15.37;;;20.40;99.90;;;;;;5097152;28;20150;-79
2023/07/22 08:35:40;;;;;;;20.20;15.40;;;20.30;99.90;;;;;;5095333;28;20046;-79
2023/07/22 08:38:07;;;;;;;21.13;14.07;;;20.20;99.90;;;;;;5096837;28;20044;-79
2023/07/22 08:40:34;;;;;;;19.67;14.30;;;20.20;99.90;;;;;;5096437;28;20048;-79
2023/07/22 08:43:01;;;;;;;21.13;14.13;;;20.00;99.90;;;;;;5096931;28;20105;-79
2023/07/22 08:45:32;;;;;;;21.57;15.40;;;19.90;99.90;;;;;;5095990;28;20040;-78
2023/07/22 08:47:58;;;;;;;21.27;14.37;;;19.70;99.90;;;;;;5096738;28;20048;-77
2023/07/22 08:50:30;;;;;;;20.63;13.40;;;19.60;99.90;;;;;;5096416;28;20047;-78
2023/07/22 08:52:57;;;;;;;19.70;14.57;;;19.40;99.90;;;;;;5096911;28;20051;-78
2023/07/22 08:55:24;;;;;;;17.07;12.20;;;19.10;99.90;;;;;;5096292;28;20054;-78
2023/07/22 08:57:51;;;;;;;15.90;11.83;;;18.80;99.90;;;;;;5096667;28;20044;-78
2023/07/22 09:00:18;;;;;;;14.93;11.77;;;18.60;99.90;;;;;;5096291;28;20125;-79
2023/07/22 09:02:44;;;;;;;19.60;12.40;;;18.50;99.90;;;;;;5096575;28;20129;-78
2023/07/22 09:05:10;;;;;;;17.50;12.50;;;18.40;99.90;;;;;;5096363;28;20044;-78
2023/07/22 09:07:38;;;;;;;15.07;11.40;;;18.30;99.90;;;;;;5096176;28;20461;-76
2023/07/22 09:10:07;;;;;;;15.53;11.03;;;18.30;99.90;;;;;;5096209;28;20101;-77
2023/07/22 09:12:39;;;;;;;14.73;10.70;;;18.20;99.90;;;;;;5095726;28;20141;-74
2023/07/22 09:15:09;;;;;;;15.47;10.93;;;18.20;99.90;;;;;;5095736;28;20048;-75
2023/07/22 09:17:35;;;;;;;14.40;10.20;;;18.20;99.90;;;;;;5095293;28;20044;-77
2023/07/22 09:20:03;;;;;;;15.87;11.80;;;18.10;99.90;;;;;;5095744;28;20050;-74
2023/07/22 09:22:29;;;;;;;16.30;11.83;;;18.10;99.90;;;;;;5094805;28;20105;-74
2023/07/22 09:25:18;;;;;;;17.10;11.83;;;18.10;99.90;;;;;;5095869;28;20101;-75
2023/07/22 09:27:54;;;;;;;16.77;11.73;;;18.20;99.90;;;;;;5094428;28;20040;-75
2023/07/22 09:30:27;;;;;;;15.67;12.37;;;18.20;99.90;;;;;;5094782;28;20113;-73
2023/07/22 09:32:55;;;;;;;17.20;12.40;;;18.40;99.90;;;;;;5095606;28;20051;-75
2023/07/22 09:35:21;;;;;;;15.90;12.03;;;18.40;99.90;;;;;;5095487;28;20442;-75
2023/07/22 09:37:47;;;;;;;15.93;10.17;;;18.60;99.90;;;;;;5095473;28;20044;-75
2023/07/22 09:40:22;;;;;;;12.63;9.40;;;18.70;99.90;;;;;;5095665;28;20108;-72
2023/07/22 09:42:50;;;;;;;14.35;11.18;;;18.70;99.90;;;;;;5094117;28;20044;-72
2023/07/22 09:45:19;;;;;;;15.07;9.03;;;18.70;99.90;;;;;;5095111;28;20043;-73
2023/07/22 09:47:46;;;;;;;14.03;9.27;;;18.70;99.90;;;;;;5095117;28;20048;-74
2023/07/22 09:50:17;;;;;;;10.87;7.43;;;18.70;99.90;;;;;;5095163;28;20040;-73
2023/07/22 09:52:49;;;;;;;15.30;8.20;;;18.80;99.90;;;;;;5094940;28;20105;-73
2023/07/22 09:55:17;;;;;;;14.00;7.03;;;18.80;99.90;;;;;;5095237;28;20095;-74
2023/07/22 09:57:49;;;;;;;9.43;6.60;;;18.80;99.90;;;;;;5094957;28;20145;-74
2023/07/22 10:00:19;;;;;;;8.90;6.63;;;18.70;99.90;;;;;;5094238;28;20078;-73
2023/07/22 10:02:49;;;;;;;8.97;6.70;;;18.60;99.90;;;;;;5094479;28;20571;-70
2023/07/22 10:05:17;;;;;;;9.43;5.77;;;18.60;99.90;;;;;;5094882;28;20070;-71
2023/07/22 10:07:48;;;;;;;7.40;5.90;;;18.40;99.90;;;;;;5094593;28;20040;-72
2023/07/22 10:10:35;;;;;;;7.33;5.70;;;18.30;99.90;;;;;;5094446;28;20534;-72
2023/07/22 10:13:02;;;;;;;7.63;5.07;;;18.30;99.90;;;;;;5094175;28;20504;-70
2023/07/22 10:15:30;;;;;;;8.10;5.20;;;18.10;99.90;;;;;;5094369;28;20489;-72
2023/07/22 10:17:56;;;;;;;6.47;4.53;;;18.20;99.90;;;;;;5094723;28;20040;-72
2023/07/22 10:20:24;;;;;;;6.37;4.53;;;18.20;99.90;;;;;;5094416;28;20048;-71
2023/07/22 10:22:51;;;;;;;8.03;5.17;;;18.10;99.90;;;;;;5094293;28;20126;-72
2023/07/22 10:25:18;;;;;;;7.53;5.03;;;18.10;99.90;;;;;;5094642;28;20395;-70
2023/07/22 10:27:45;;;;;;;7.50;4.30;;;18.10;99.90;;;;;;5094226;28;20043;-72
2023/07/22 10:30:12;;;;;;;5.93;4.53;;;18.00;99.90;;;;;;5094423;28;20044;-71
2023/07/22 10:32:47;;;;;;;6.03;4.50;;;18.10;99.90;;;;;;5094139;28;20044;-77
2023/07/22 10:35:17;;;;;;;7.07;4.78;;;18.00;99.90;;;;;;5093447;28;20044;-69
2023/07/22 10:37:45;;;;;;;6.30;4.47;;;18.00;99.90;;;;;;5092622;28;20125;-69
2023/07/22 10:40:20;;;;;;;6.83;4.80;;;18.00;99.90;;;;;;5094267;28;20048;-70
2023/07/22 10:43:02;;;;;;;7.57;4.60;;;18.00;99.90;;;;;;5092995;28;20052;-70
2023/07/22 10:45:33;;;;;;;6.90;4.57;;;18.00;99.90;;;;;;5094111;28;20044;-71
2023/07/22 10:48:04;;;;;;;7.07;4.77;;;18.00;99.90;;;;;;5093987;28;20484;-79
2023/07/22 10:50:51;;;;;;;5.90;4.17;;;18.00;99.90;;;;;;5094033;28;20127;-80
2023/07/22 10:53:26;;;;;;;7.17;4.53;;;18.10;99.90;;;;;;5094344;28;20468;-79
2023/07/22 10:56:07;;;;;;;6.65;4.47;;;18.20;99.90;;;;;;5093817;28;20138;-79
2023/07/22 10:58:53;;;;;;;7.37;5.10;;;18.20;99.90;;;;;;5092397;28;20070;-79
2023/07/22 11:01:28;;;;;;;7.13;5.10;;;18.20;99.90;;;;;;5075963;28;20048;-79
2023/07/22 11:04:18;;;;;;;6.77;4.60;;;18.30;99.90;;;;;;5093589;28;20113;-79
2023/07/22 11:06:43;;;;;;;7.33;4.80;;;18.30;99.90;;;;;;5093578;28;20130;-77
2023/07/22 11:09:31;;;;;;;5.70;3.97;;;18.30;99.90;;;;;;5093655;28;20202;-76
2023/07/22 11:12:01;;;;;;;6.90;4.50;;;18.30;99.90;;;;;;5093459;28;20058;-78
2023/07/22 11:14:44;;;;;;;7.43;5.10;;;18.30;99.90;;;;;;5093631;28;20054;-68
2023/07/22 11:17:11;;;;;;;8.50;4.97;;;18.30;99.90;;;;;;5093673;28;20075;-67
2023/07/22 11:19:37;;;;;;;7.10;5.23;;;18.20;99.90;;;;;;5093279;28;20494;-81
2023/07/22 11:22:04;;;;;;;8.67;5.77;;;18.10;99.90;;;;;;5093947;28;20073;-81
2023/07/22 11:24:31;;;;;;;7.33;6.03;;;18.10;99.90;;;;;;5093629;28;20048;-81
2023/07/22 11:26:57;;;;;;;7.83;5.40;;;18.00;99.90;;;;;;5093248;28;20079;-80
2023/07/22 11:29:23;;;;;;;8.53;6.40;;;18.00;99.90;;;;;;5093372;28;20083;-79
2023/07/22 11:31:51;;;;;;;8.47;6.40;;;18.00;99.90;;;;;;5093224;28;20040;-80
2023/07/22 11:34:19;;;;;;;8.33;6.40;;;17.90;99.90;;;;;;5093218;28;20518;-79
2023/07/22 11:36:46;;;;;;;10.37;6.53;;;17.90;99.90;;;;;;5093115;28;20124;-80
2023/07/22 11:39:14;;;;;;;9.20;6.53;;;17.80;99.90;;;;;;5075690;28;20044;-79
2023/07/22 11:41:44;;;;;;;10.00;7.07;;;17.70;99.90;;;;;;5093180;28;20060;-81
2023/07/22 11:44:14;;;;;;;10.13;8.03;;;17.70;99.90;;;;;;5093681;28;20040;-81
2023/07/22 11:46:56;;;;;;;9.97;7.73;;;17.70;99.90;;;;;;5093257;28;20048;-77
2023/07/22 11:49:31;;;;;;;10.27;7.93;;;17.70;99.90;;;;;;5093435;28;20044;-79
2023/07/22 11:52:02;;;;;;;11.67;8.00;;;17.80;99.90;;;;;;5092682;28;20538;-80
2023/07/22 11:54:30;;;;;;;11.30;8.13;;;17.70;99.90;;;;;;5093042;28;20051;-80
2023/07/22 11:56:56;;;;;;;12.13;8.37;;;17.60;99.90;;;;;;5092920;28;20040;-77
2023/07/22 11:59:46;;;;;;;11.87;9.37;;;17.50;99.90;;;;;;5093115;28;20058;-81
2023/07/22 12:02:22;;;;;;;15.33;10.00;;;17.50;99.90;;;;;;5093252;28;20059;-84
2023/07/22 12:04:59;;;;;;;15.93;10.43;;;17.40;99.90;;;;;;5093168;28;20044;-85
2023/07/22 12:07:36;;;;;;;12.50;10.30;;;17.40;99.90;;;;;;5092002;28;20056;-82
2023/07/22 12:10:05;;;;;;;15.60;10.67;;;17.30;99.90;;;;;;5092858;28;20055;-80
2023/07/22 12:12:42;;;;;;;12.53;10.27;;;17.30;99.90;;;;;;5093158;28;20452;-84
2023/07/22 12:15:15;;;;;;;12.73;10.63;;;17.30;99.90;;;;;;5093051;28;20054;-74
2023/07/22 12:18:00;;;;;;;13.43;10.27;;;17.40;99.90;;;;;;5092935;28;20048;-77
2023/07/22 12:20:28;;;;;;;;;;;17.40;99.90;;;;;;5093374;28;20052;-75
2023/07/22 12:22:55;;;;;;;12.67;10.57;;;17.50;99.90;;;;;;5092611;28;19974;-75
2023/07/22 12:25:20;;;;;;;14.00;11.47;;;17.50;99.90;;;;;;5092889;28;20072;-76
2023/07/22 12:27:46;;;;;;;13.33;11.00;;;17.70;99.90;;;;;;5091660;28;20134;-75
2023/07/22 12:30:12;;;;;;;13.67;10.63;;;17.90;99.90;;;;;;5092894;28;20048;-75
2023/07/22 12:32:38;;;;;;;12.53;10.60;;;18.10;99.90;;;;;;5092745;28;20088;-75
2023/07/22 12:35:05;;;;;;;14.63;11.00;;;18.30;99.90;;;;;;5092476;28;20086;-75
2023/07/22 12:37:31;;;;;;;11.80;9.90;;;18.50;99.90;;;;;;5092432;28;20036;-75
2023/07/22 12:39:57;;;;;;;12.13;9.53;;;18.70;99.90;;;;;;5092037;28;20047;-75
2023/07/22 12:42:23;;;;;;;14.30;10.50;;;18.80;99.90;;;;;;5092310;28;20040;-75